createdAt,value
2022-10-05T04:03:28.933Z,100012.94
2022-10-05T04:07:42.646Z,100011.06
2022-10-05T04:11:49.662Z,100000.28
2022-10-05T04:15:58.547Z,99997.66
2022-10-05T04:20:07.082Z,100001.25
2022-10-05T04:24:17.121Z,99983.94
2022-10-05T04:28:32.232Z,99987.41
2022-10-05T04:32:39.723Z,99980.53
2022-10-05T04:36:55.479Z,99977.81
2022-10-05T04:41:15.285Z,99976.31
2022-10-05T04:45:30.367Z,99969.97
2022-10-05T04:49:50.964Z,99966.72
2022-10-05T04:54:01.299Z,99968.72
2022-10-05T04:58:14.173Z,99965.34
2022-10-05T05:02:30.114Z,99963.41
2022-10-05T05:06:39.645Z,99960.59
2022-10-05T05:11:13.670Z,99957.34
2022-10-05T05:15:33.228Z,99971.78
2022-10-05T05:19:46.257Z,99977.00
2022-10-05T05:23:55.465Z,99973.59
2022-10-05T05:28:07.157Z,99976.75
2022-10-05T05:32:25.121Z,99983.63
2022-10-05T05:36:41.896Z,99973.88
2022-10-05T05:40:51.302Z,99966.59
2022-10-05T05:45:01.015Z,99976.97
2022-10-05T05:49:15.509Z,99977.69
2022-10-05T05:53:22.209Z,99965.84
2022-10-05T05:57:30.690Z,99974.63
2022-10-05T06:01:44.162Z,99982.16
2022-10-05T06:05:52.193Z,99974.31
2022-10-05T06:10:02.863Z,99967.81
2022-10-05T06:14:15.848Z,99971.88
2022-10-05T06:18:22.611Z,99965.72
2022-10-05T06:22:33.932Z,99977.38
2022-10-05T06:27:06.312Z,99991.31
2022-10-05T06:31:20.072Z,99976.81
2022-10-05T06:35:44.284Z,99977.47
2022-10-05T06:40:06.654Z,99972.22
2022-10-05T06:44:17.057Z,99986.50
2022-10-05T06:48:32.289Z,99983.19
2022-10-05T06:53:19.419Z,99982.56
2022-10-05T06:57:42.197Z,99979.16
2022-10-05T07:01:54.500Z,99982.19
2022-10-05T07:06:06.247Z,99980.00
2022-10-05T07:10:20.458Z,99995.41
2022-10-05T07:14:34.576Z,99986.94
2022-10-05T07:18:47.824Z,99980.59
2022-10-05T07:23:05.678Z,99988.78
2022-10-05T07:27:17.264Z,99987.72
2022-10-05T07:31:28.007Z,99987.94
2022-10-05T07:36:05.922Z,99984.03
2022-10-05T07:40:16.016Z,99979.94
2022-10-05T07:44:26.318Z,99985.16
2022-10-05T07:48:36.487Z,99989.09
2022-10-05T07:52:41.916Z,99991.81
2022-10-05T07:56:50.980Z,99989.63
2022-10-05T08:01:03.830Z,99995.19
2022-10-05T08:05:15.123Z,100001.22
2022-10-05T08:09:33.955Z,100002.16
2022-10-05T08:13:43.367Z,99998.72
2022-10-05T08:17:53.541Z,100000.06
2022-10-05T08:22:04.175Z,100009.31
2022-10-05T08:26:17.422Z,99996.88
2022-10-05T08:30:20.547Z,99989.88
2022-10-05T08:34:31.398Z,99991.16
2022-10-05T08:38:34.692Z,99999.94
2022-10-05T08:43:02.769Z,99991.00
2022-10-05T08:47:19.622Z,100002.50
2022-10-05T08:51:40.559Z,99996.97
2022-10-05T08:55:56.572Z,99997.31
2022-10-05T09:00:12.638Z,100002.53
2022-10-05T09:04:30.911Z,100001.88
2022-10-05T09:09:02.171Z,99995.22
2022-10-05T09:13:31.403Z,100003.41
2022-10-05T09:18:04.330Z,99998.34
2022-10-05T09:22:16.011Z,100004.56
2022-10-05T09:26:45.970Z,100006.41
2022-10-05T09:31:12.779Z,100007.38
2022-10-05T09:35:35.852Z,100001.19
2022-10-05T09:40:15.548Z,100017.78
2022-10-05T09:44:57.234Z,100006.06
2022-10-05T09:49:24.840Z,100005.59
2022-10-05T09:53:55.307Z,100009.59
2022-10-05T09:58:29.362Z,100010.31
2022-10-05T10:03:09.190Z,100006.97
2022-10-05T10:07:45.637Z,100005.13
2022-10-05T10:12:21.077Z,99999.16
2022-10-05T10:16:44.894Z,99995.47
2022-10-05T10:21:02.906Z,99997.91
2022-10-05T10:25:35.327Z,99997.78
2022-10-05T10:29:49.274Z,99998.31
2022-10-05T10:34:09.205Z,99992.03
2022-10-05T10:38:30.935Z,99984.72
2022-10-05T10:42:40.719Z,99991.94
2022-10-05T10:46:54.572Z,99985.53
2022-10-05T10:51:14.703Z,99981.81
2022-10-05T10:55:31.026Z,99971.34
2022-10-05T11:00:22.511Z,99978.31
2022-10-05T11:04:58.729Z,99970.75
2022-10-05T11:09:24.446Z,99971.28
2022-10-05T11:14:08.227Z,99960.88
2022-10-05T11:18:26.848Z,99961.94
2022-10-05T11:22:46.003Z,99955.81
2022-10-05T11:27:13.162Z,99956.44
2022-10-05T11:31:36.418Z,99959.59
2022-10-05T11:35:59.048Z,99948.84
2022-10-05T11:40:27.670Z,99940.97
2022-10-05T11:45:02.977Z,99938.16
2022-10-05T11:49:25.650Z,99932.09
2022-10-05T11:53:34.454Z,99916.19
2022-10-05T11:57:40.328Z,99908.72
2022-10-05T12:01:49.527Z,99906.25
2022-10-05T12:06:05.758Z,99901.91
2022-10-05T12:10:23.207Z,99898.19
2022-10-05T12:14:37.023Z,99891.00
2022-10-05T12:18:57.442Z,99882.69
2022-10-05T12:23:11.767Z,99878.72
2022-10-05T12:27:17.826Z,99883.22
2022-10-05T12:31:29.628Z,99881.75
2022-10-05T12:35:48.361Z,99874.03
2022-10-05T12:40:02.806Z,99866.84
2022-10-05T12:44:18.121Z,99865.72
2022-10-05T12:48:34.571Z,99858.13
2022-10-05T12:52:55.909Z,99850.97
2022-10-05T12:57:07.531Z,99843.53
2022-10-05T13:01:22.179Z,99842.22
2022-10-05T13:05:31.343Z,99837.00
2022-10-05T13:09:40.953Z,99831.47
2022-10-05T13:13:56.379Z,99824.78
2022-10-05T13:18:13.254Z,99831.63
2022-10-05T13:22:32.846Z,99824.09
2022-10-05T13:26:40.289Z,99820.78
2022-10-05T13:30:52.879Z,99813.00
2022-10-05T13:35:03.679Z,99814.28
2022-10-05T13:39:22.498Z,99821.53
2022-10-05T13:43:34.299Z,99803.84
2022-10-05T13:47:46.477Z,99791.69
2022-10-05T13:51:56.397Z,99787.16
2022-10-05T13:56:01.428Z,99781.00
2022-10-05T14:00:14.745Z,99773.22
2022-10-05T14:04:21.975Z,99773.06
2022-10-05T14:08:28.879Z,99769.16
2022-10-05T14:12:40.614Z,99764.38
2022-10-05T14:16:51.974Z,99756.38
2022-10-05T14:21:02.043Z,99755.78
2022-10-05T14:25:17.006Z,99746.16
2022-10-05T14:29:24.019Z,99743.84
2022-10-05T14:33:28.904Z,99734.25
2022-10-05T14:37:45.600Z,99722.47
2022-10-05T14:41:50.246Z,99717.25
2022-10-05T14:45:54.905Z,99713.28
2022-10-05T14:50:13.854Z,99707.75
2022-10-05T14:54:28.370Z,99708.84
2022-10-05T14:58:44.602Z,99703.34
2022-10-05T15:03:20.291Z,99694.56
2022-10-05T15:07:25.953Z,99695.25
2022-10-05T15:11:38.874Z,99692.63
2022-10-05T15:15:48.362Z,99686.75
2022-10-05T15:20:01.637Z,99685.41
2022-10-05T15:24:06.038Z,99678.56
2022-10-05T15:28:18.387Z,99672.22
2022-10-05T15:32:33.975Z,99670.31
2022-10-05T15:36:44.014Z,99664.91
2022-10-05T15:40:58.657Z,99672.56
2022-10-05T15:45:15.866Z,99656.38
2022-10-05T15:49:28.435Z,99660.91
2022-10-05T15:53:38.027Z,99663.56
2022-10-05T15:57:50.458Z,99661.81
2022-10-05T16:02:00.783Z,99672.00
2022-10-05T16:06:41.814Z,99667.09
2022-10-05T16:10:45.999Z,99667.78
2022-10-05T16:15:04.581Z,99670.19
2022-10-05T16:19:17.448Z,99678.69
2022-10-05T16:23:34.694Z,99678.06
2022-10-05T16:27:50.988Z,99673.25
2022-10-05T16:31:59.030Z,99673.94
2022-10-05T16:36:16.814Z,99675.63
2022-10-05T16:40:30.876Z,99688.38
2022-10-05T16:44:40.936Z,99685.13
2022-10-05T16:48:53.706Z,99696.41
2022-10-05T16:53:03.290Z,99693.97
2022-10-05T16:57:14.516Z,99703.91
2022-10-05T17:01:31.013Z,99710.31
2022-10-05T17:05:48.606Z,99724.69
2022-10-05T17:10:27.142Z,99731.66
2022-10-05T17:14:41.234Z,99745.41
2022-10-05T17:19:21.672Z,99760.34
2022-10-05T17:23:32.539Z,99760.28
2022-10-05T17:27:52.125Z,99766.81
2022-10-05T17:32:03.387Z,99770.25
2022-10-05T17:36:18.348Z,99792.34
2022-10-05T17:40:36.945Z,99792.78
2022-10-05T17:44:40.907Z,99797.38
2022-10-05T17:49:01.256Z,99807.28
2022-10-05T17:53:39.906Z,99809.41
2022-10-05T17:57:42.597Z,99824.38
2022-10-05T18:02:16.419Z,99824.91
2022-10-05T18:06:24.251Z,99825.53
2022-10-05T18:10:28.788Z,99823.09
2022-10-05T18:14:55.063Z,99826.25
2022-10-05T18:18:59.158Z,99837.22
2022-10-05T18:23:29.937Z,99825.13
2022-10-05T18:28:05.373Z,99848.72
2022-10-05T18:32:19.459Z,99850.44
2022-10-05T18:36:38.129Z,99853.19
2022-10-05T18:40:53.007Z,99852.38
2022-10-05T18:45:00.358Z,99855.03
2022-10-05T18:49:16.111Z,99851.41
2022-10-05T18:53:31.556Z,99862.53
2022-10-05T18:57:51.380Z,99856.44
2022-10-05T19:02:20.411Z,99858.91
2022-10-05T19:06:27.291Z,99860.13
2022-10-05T19:10:42.504Z,99856.88
2022-10-05T19:14:56.375Z,99857.75
2022-10-05T19:19:11.103Z,99851.97
2022-10-05T19:23:29.213Z,99854.84
2022-10-05T19:27:44.580Z,99852.63
2022-10-05T19:31:52.734Z,99861.66
2022-10-05T19:36:08.915Z,99866.97
2022-10-05T19:40:22.023Z,99859.09
2022-10-05T19:44:44.073Z,99865.38
2022-10-05T19:48:48.923Z,99872.00
2022-10-05T19:52:57.721Z,99867.16
2022-10-05T19:57:02.475Z,99871.63
2022-10-05T20:01:07.844Z,99874.22
2022-10-05T20:05:14.527Z,99889.03
2022-10-05T20:09:21.897Z,99897.53
2022-10-05T20:13:24.527Z,99899.38
2022-10-05T20:17:46.792Z,99901.06
2022-10-05T20:21:51.330Z,99901.34
2022-10-05T20:26:08.059Z,99909.84
2022-10-05T20:30:13.470Z,99912.09
2022-10-05T20:34:17.925Z,99912.63
2022-10-05T20:38:20.643Z,99928.22
2022-10-05T20:42:23.802Z,99934.88
2022-10-05T20:46:26.489Z,99940.41
2022-10-05T20:50:32.680Z,99947.59
2022-10-05T20:54:35.350Z,99944.47
2022-10-05T20:58:37.962Z,99946.75
